sensor_id;sensor_type;location;lat;lon;timestamp;P1;durP1;ratioP1;P2;durP2;ratioP2
48823;SDS011;34640;53.590;10.054;2024-02-21T00:01:02;49.47;;;20.02;;
48823;SDS011;34640;53.590;10.054;2024-02-21T00:03:37;50.13;;;18.58;;
48823;SDS011;34640;53.590;10.054;2024-02-21T00:06:10;52.55;;;18.83;;
48823;SDS011;34640;53.590;10.054;2024-02-21T00:08:44;45.72;;;19.45;;
48823;SDS011;34640;53.590;10.054;2024-02-21T00:11:18;47.40;;;18.67;;
48823;SDS011;34640;53.590;10.054;2024-02-21T00:13:51;53.35;;;19.50;;
48823;SDS011;34640;53.590;10.054;2024-02-21T00:16:24;55.72;;;19.33;;
48823;SDS011;34640;53.590;10.054;2024-02-21T00:18:59;49.75;;;19.50;;
48823;SDS011;34640;53.590;10.054;2024-02-21T00:21:31;53.75;;;21.02;;
48823;SDS011;34640;53.590;10.054;2024-02-21T00:24:05;52.20;;;19.17;;
48823;SDS011;34640;53.590;10.054;2024-02-21T00:26:38;48.05;;;20.10;;
48823;SDS011;34640;53.590;10.054;2024-02-21T00:29:11;51.10;;;19.63;;
48823;SDS011;34640;53.590;10.054;2024-02-21T00:31:44;46.20;;;18.70;;
48823;SDS011;34640;53.590;10.054;2024-02-21T00:34:19;45.75;;;19.95;;
48823;SDS011;34640;53.590;10.054;2024-02-21T00:36:52;49.08;;;19.55;;
48823;SDS011;34640;53.590;10.054;2024-02-21T00:39:25;60.58;;;20.60;;
48823;SDS011;34640;53.590;10.054;2024-02-21T00:41:58;44.28;;;19.85;;
48823;SDS011;34640;53.590;10.054;2024-02-21T00:44:31;43.58;;;19.90;;
48823;SDS011;34640;53.590;10.054;2024-02-21T00:47:05;48.22;;;20.75;;
48823;SDS011;34640;53.590;10.054;2024-02-21T00:49:39;51.22;;;21.77;;
48823;SDS011;34640;53.590;10.054;2024-02-21T00:52:12;50.00;;;20.25;;
48823;SDS011;34640;53.590;10.054;2024-02-21T00:54:45;50.22;;;20.40;;
48823;SDS011;34640;53.590;10.054;2024-02-21T00:57:25;48.03;;;20.25;;
48823;SDS011;34640;53.590;10.054;2024-02-21T00:59:58;49.03;;;20.10;;
48823;SDS011;34640;53.590;10.054;2024-02-21T01:02:31;48.13;;;21.33;;
48823;SDS011;34640;53.590;10.054;2024-02-21T01:05:06;51.92;;;20.42;;
48823;SDS011;34640;53.590;10.054;2024-02-21T01:07:40;45.83;;;20.08;;
48823;SDS011;34640;53.590;10.054;2024-02-21T01:10:13;59.88;;;21.65;;
48823;SDS011;34640;53.590;10.054;2024-02-21T01:12:46;54.33;;;20.90;;
48823;SDS011;34640;53.590;10.054;2024-02-21T01:15:19;48.58;;;20.08;;
48823;SDS011;34640;53.590;10.054;2024-02-21T01:17:53;46.00;;;20.15;;
48823;SDS011;34640;53.590;10.054;2024-02-21T01:20:29;43.55;;;20.30;;
48823;SDS011;34640;53.590;10.054;2024-02-21T01:23:02;47.28;;;19.38;;
48823;SDS011;34640;53.590;10.054;2024-02-21T01:25:36;42.85;;;19.25;;
48823;SDS011;34640;53.590;10.054;2024-02-21T01:28:09;55.80;;;20.75;;
48823;SDS011;34640;53.590;10.054;2024-02-21T01:30:41;52.53;;;21.55;;
48823;SDS011;34640;53.590;10.054;2024-02-21T01:33:15;48.08;;;20.92;;
48823;SDS011;34640;53.590;10.054;2024-02-21T01:35:49;44.83;;;19.85;;
48823;SDS011;34640;53.590;10.054;2024-02-21T01:38:23;49.95;;;21.35;;
48823;SDS011;34640;53.590;10.054;2024-02-21T01:40:56;48.38;;;21.65;;
48823;SDS011;34640;53.590;10.054;2024-02-21T01:43:30;44.85;;;20.17;;
48823;SDS011;34640;53.590;10.054;2024-02-21T01:46:03;46.78;;;20.75;;
48823;SDS011;34640;53.590;10.054;2024-02-21T01:48:36;53.53;;;21.88;;
48823;SDS011;34640;53.590;10.054;2024-02-21T01:51:11;45.53;;;22.55;;
48823;SDS011;34640;53.590;10.054;2024-02-21T01:53:45;52.17;;;21.35;;
48823;SDS011;34640;53.590;10.054;2024-02-21T01:56:19;51.88;;;24.10;;
48823;SDS011;34640;53.590;10.054;2024-02-21T01:58:52;56.00;;;24.40;;
48823;SDS011;34640;53.590;10.054;2024-02-21T02:01:28;51.67;;;24.10;;
48823;SDS011;34640;53.590;10.054;2024-02-21T02:04:02;47.42;;;23.10;;
48823;SDS011;34640;53.590;10.054;2024-02-21T02:06:39;48.08;;;23.85;;
48823;SDS011;34640;53.590;10.054;2024-02-21T02:09:12;49.53;;;24.17;;
48823;SDS011;34640;53.590;10.054;2024-02-21T02:11:45;56.70;;;25.80;;
48823;SDS011;34640;53.590;10.054;2024-02-21T02:14:19;62.42;;;26.25;;
48823;SDS011;34640;53.590;10.054;2024-02-21T02:16:53;54.30;;;26.17;;
48823;SDS011;34640;53.590;10.054;2024-02-21T02:19:28;57.55;;;27.70;;
48823;SDS011;34640;53.590;10.054;2024-02-21T02:22:05;63.83;;;28.70;;
48823;SDS011;34640;53.590;10.054;2024-02-21T02:24:43;59.78;;;28.17;;
48823;SDS011;34640;53.590;10.054;2024-02-21T02:27:16;61.92;;;27.58;;
48823;SDS011;34640;53.590;10.054;2024-02-21T02:29:50;69.93;;;27.40;;
48823;SDS011;34640;53.590;10.054;2024-02-21T02:32:24;69.63;;;29.60;;
48823;SDS011;34640;53.590;10.054;2024-02-21T02:34:57;78.90;;;31.55;;
48823;SDS011;34640;53.590;10.054;2024-02-21T02:37:30;73.30;;;30.63;;
48823;SDS011;34640;53.590;10.054;2024-02-21T02:40:05;72.20;;;29.95;;
48823;SDS011;34640;53.590;10.054;2024-02-21T02:42:39;68.32;;;30.67;;
48823;SDS011;34640;53.590;10.054;2024-02-21T02:45:13;61.78;;;28.05;;
48823;SDS011;34640;53.590;10.054;2024-02-21T02:47:46;60.47;;;26.77;;
48823;SDS011;34640;53.590;10.054;2024-02-21T02:50:19;60.20;;;25.80;;
48823;SDS011;34640;53.590;10.054;2024-02-21T02:52:53;54.42;;;24.60;;
48823;SDS011;34640;53.590;10.054;2024-02-21T02:55:32;58.53;;;25.15;;
48823;SDS011;34640;53.590;10.054;2024-02-21T02:58:07;56.42;;;26.45;;
48823;SDS011;34640;53.590;10.054;2024-02-21T03:00:41;60.38;;;26.85;;
48823;SDS011;34640;53.590;10.054;2024-02-21T03:03:33;56.80;;;24.70;;
48823;SDS011;34640;53.590;10.054;2024-02-21T03:06:24;56.22;;;26.25;;
48823;SDS011;34640;53.590;10.054;2024-02-21T03:08:57;55.35;;;24.27;;
48823;SDS011;34640;53.590;10.054;2024-02-21T03:11:35;59.30;;;25.42;;
48823;SDS011;34640;53.590;10.054;2024-02-21T03:14:13;55.42;;;26.30;;
48823;SDS011;34640;53.590;10.054;2024-02-21T03:16:46;56.35;;;25.25;;
48823;SDS011;34640;53.590;10.054;2024-02-21T03:19:19;52.25;;;24.80;;
48823;SDS011;34640;53.590;10.054;2024-02-21T03:21:52;58.72;;;24.98;;
48823;SDS011;34640;53.590;10.054;2024-02-21T03:24:25;70.43;;;25.48;;
48823;SDS011;34640;53.590;10.054;2024-02-21T03:27:05;62.35;;;25.48;;
48823;SDS011;34640;53.590;10.054;2024-02-21T03:29:39;51.40;;;24.02;;
48823;SDS011;34640;53.590;10.054;2024-02-21T03:32:12;51.40;;;23.15;;
48823;SDS011;34640;53.590;10.054;2024-02-21T03:34:47;47.92;;;23.85;;
48823;SDS011;34640;53.590;10.054;2024-02-21T03:37:20;60.58;;;24.02;;
48823;SDS011;34640;53.590;10.054;2024-02-21T03:39:53;48.88;;;23.67;;
48823;SDS011;34640;53.590;10.054;2024-02-21T03:42:28;52.85;;;24.75;;
48823;SDS011;34640;53.590;10.054;2024-02-21T03:45:03;51.90;;;23.23;;
48823;SDS011;34640;53.590;10.054;2024-02-21T03:47:37;50.33;;;23.08;;
48823;SDS011;34640;53.590;10.054;2024-02-21T03:50:10;54.65;;;23.17;;
48823;SDS011;34640;53.590;10.054;2024-02-21T03:52:44;51.95;;;23.23;;
48823;SDS011;34640;53.590;10.054;2024-02-21T03:55:17;50.65;;;23.00;;
48823;SDS011;34640;53.590;10.054;2024-02-21T03:57:52;48.63;;;22.08;;
48823;SDS011;34640;53.590;10.054;2024-02-21T04:00:26;54.95;;;24.35;;
48823;SDS011;34640;53.590;10.054;2024-02-21T04:02:59;49.65;;;23.38;;
48823;SDS011;34640;53.590;10.054;2024-02-21T04:05:33;49.38;;;22.27;;
48823;SDS011;34640;53.590;10.054;2024-02-21T04:08:06;53.70;;;23.50;;
48823;SDS011;34640;53.590;10.054;2024-02-21T04:10:40;55.67;;;23.50;;
48823;SDS011;34640;53.590;10.054;2024-02-21T04:13:14;49.83;;;22.67;;
48823;SDS011;34640;53.590;10.054;2024-02-21T04:15:48;47.58;;;22.83;;
48823;SDS011;34640;53.590;10.054;2024-02-21T04:18:27;56.58;;;23.55;;
48823;SDS011;34640;53.590;10.054;2024-02-21T04:21:00;53.17;;;23.48;;
48823;SDS011;34640;53.590;10.054;2024-02-21T04:23:33;61.90;;;23.05;;
48823;SDS011;34640;53.590;10.054;2024-02-21T04:26:06;47.30;;;23.75;;
48823;SDS011;34640;53.590;10.054;2024-02-21T04:28:40;48.40;;;22.38;;
48823;SDS011;34640;53.590;10.054;2024-02-21T04:31:14;54.72;;;23.38;;
48823;SDS011;34640;53.590;10.054;2024-02-21T04:33:47;47.50;;;22.30;;
48823;SDS011;34640;53.590;10.054;2024-02-21T04:36:20;50.13;;;22.45;;
48823;SDS011;34640;53.590;10.054;2024-02-21T04:38:52;56.13;;;23.35;;
48823;SDS011;34640;53.590;10.054;2024-02-21T04:41:26;45.58;;;21.98;;
48823;SDS011;34640;53.590;10.054;2024-02-21T04:44:00;40.78;;;20.55;;
48823;SDS011;34640;53.590;10.054;2024-02-21T04:46:35;43.70;;;20.88;;
48823;SDS011;34640;53.590;10.054;2024-02-21T04:49:09;48.75;;;21.52;;
48823;SDS011;34640;53.590;10.054;2024-02-21T04:51:42;44.63;;;20.10;;
48823;SDS011;34640;53.590;10.054;2024-02-21T04:54:18;42.90;;;20.27;;
48823;SDS011;34640;53.590;10.054;2024-02-21T04:56:52;34.10;;;18.85;;
48823;SDS011;34640;53.590;10.054;2024-02-21T04:59:28;38.80;;;19.23;;
48823;SDS011;34640;53.590;10.054;2024-02-21T05:02:01;34.45;;;16.50;;
48823;SDS011;34640;53.590;10.054;2024-02-21T05:04:35;34.20;;;16.75;;
48823;SDS011;34640;53.590;10.054;2024-02-21T05:07:10;32.38;;;17.17;;
48823;SDS011;34640;53.590;10.054;2024-02-21T05:09:43;36.13;;;17.05;;
48823;SDS011;34640;53.590;10.054;2024-02-21T05:12:17;30.00;;;15.32;;
48823;SDS011;34640;53.590;10.054;2024-02-21T05:14:55;27.13;;;15.55;;
48823;SDS011;34640;53.590;10.054;2024-02-21T05:17:28;29.38;;;14.63;;
48823;SDS011;34640;53.590;10.054;2024-02-21T05:20:01;28.33;;;14.18;;
48823;SDS011;34640;53.590;10.054;2024-02-21T05:22:35;27.80;;;14.35;;
48823;SDS011;34640;53.590;10.054;2024-02-21T05:25:08;26.80;;;13.32;;
48823;SDS011;34640;53.590;10.054;2024-02-21T05:27:42;24.85;;;13.15;;
48823;SDS011;34640;53.590;10.054;2024-02-21T05:30:18;23.38;;;13.20;;
48823;SDS011;34640;53.590;10.054;2024-02-21T05:32:51;24.50;;;12.68;;
48823;SDS011;34640;53.590;10.054;2024-02-21T05:35:26;23.63;;;12.38;;
48823;SDS011;34640;53.590;10.054;2024-02-21T05:38:00;26.50;;;12.43;;
48823;SDS011;34640;53.590;10.054;2024-02-21T05:40:37;21.00;;;11.95;;
48823;SDS011;34640;53.590;10.054;2024-02-21T05:43:10;18.95;;;11.07;;
48823;SDS011;34640;53.590;10.054;2024-02-21T05:45:45;25.15;;;10.73;;
48823;SDS011;34640;53.590;10.054;2024-02-21T05:48:21;19.15;;;9.98;;
48823;SDS011;34640;53.590;10.054;2024-02-21T05:50:55;17.52;;;10.30;;
48823;SDS011;34640;53.590;10.054;2024-02-21T05:53:28;18.48;;;10.43;;
48823;SDS011;34640;53.590;10.054;2024-02-21T05:56:03;14.18;;;9.10;;
48823;SDS011;34640;53.590;10.054;2024-02-21T05:58:37;16.15;;;9.20;;
48823;SDS011;34640;53.590;10.054;2024-02-21T06:01:14;15.73;;;8.73;;
48823;SDS011;34640;53.590;10.054;2024-02-21T06:03:47;14.32;;;7.72;;
48823;SDS011;34640;53.590;10.054;2024-02-21T06:06:23;13.90;;;8.75;;
48823;SDS011;34640;53.590;10.054;2024-02-21T06:08:56;14.18;;;7.93;;
48823;SDS011;34640;53.590;10.054;2024-02-21T06:11:30;13.70;;;7.57;;
48823;SDS011;34640;53.590;10.054;2024-02-21T06:14:03;14.57;;;7.03;;
48823;SDS011;34640;53.590;10.054;2024-02-21T06:16:38;10.38;;;6.40;;
48823;SDS011;34640;53.590;10.054;2024-02-21T06:19:12;12.70;;;6.65;;
48823;SDS011;34640;53.590;10.054;2024-02-21T06:21:46;10.90;;;6.70;;
48823;SDS011;34640;53.590;10.054;2024-02-21T06:24:19;10.82;;;6.03;;
48823;SDS011;34640;53.590;10.054;2024-02-21T06:26:53;9.90;;;6.22;;
48823;SDS011;34640;53.590;10.054;2024-02-21T06:29:27;9.50;;;5.75;;
48823;SDS011;34640;53.590;10.054;2024-02-21T06:32:03;9.57;;;4.93;;
48823;SDS011;34640;53.590;10.054;2024-02-21T06:34:37;8.15;;;4.80;;
48823;SDS011;34640;53.590;10.054;2024-02-21T06:37:12;6.95;;;4.22;;
48823;SDS011;34640;53.590;10.054;2024-02-21T06:39:45;7.25;;;4.22;;
48823;SDS011;34640;53.590;10.054;2024-02-21T06:42:18;7.55;;;4.53;;
48823;SDS011;34640;53.590;10.054;2024-02-21T06:44:53;9.52;;;5.22;;
48823;SDS011;34640;53.590;10.054;2024-02-21T06:47:29;9.88;;;4.70;;
48823;SDS011;34640;53.590;10.054;2024-02-21T06:50:04;7.63;;;4.20;;
48823;SDS011;34640;53.590;10.054;2024-02-21T06:52:39;7.68;;;4.65;;
48823;SDS011;34640;53.590;10.054;2024-02-21T06:55:12;9.65;;;4.55;;
48823;SDS011;34640;53.590;10.054;2024-02-21T06:57:46;9.40;;;4.75;;
48823;SDS011;34640;53.590;10.054;2024-02-21T07:00:20;7.97;;;4.18;;
48823;SDS011;34640;53.590;10.054;2024-02-21T07:02:57;6.80;;;4.10;;
48823;SDS011;34640;53.590;10.054;2024-02-21T07:05:30;9.40;;;5.28;;
48823;SDS011;34640;53.590;10.054;2024-02-21T07:08:04;7.50;;;3.85;;
48823;SDS011;34640;53.590;10.054;2024-02-21T07:10:37;8.20;;;4.38;;
48823;SDS011;34640;53.590;10.054;2024-02-21T07:13:13;7.50;;;4.82;;
48823;SDS011;34640;53.590;10.054;2024-02-21T07:15:47;7.35;;;4.55;;
48823;SDS011;34640;53.590;10.054;2024-02-21T07:18:22;8.82;;;5.07;;
48823;SDS011;34640;53.590;10.054;2024-02-21T07:20:58;9.10;;;5.13;;
48823;SDS011;34640;53.590;10.054;2024-02-21T07:23:31;13.70;;;6.43;;
48823;SDS011;34640;53.590;10.054;2024-02-21T07:26:04;9.10;;;5.43;;
48823;SDS011;34640;53.590;10.054;2024-02-21T07:28:37;11.02;;;6.05;;
48823;SDS011;34640;53.590;10.054;2024-02-21T07:31:10;8.82;;;5.43;;
48823;SDS011;34640;53.590;10.054;2024-02-21T07:33:44;11.43;;;6.15;;
48823;SDS011;34640;53.590;10.054;2024-02-21T07:36:25;9.85;;;5.78;;
48823;SDS011;34640;53.590;10.054;2024-02-21T07:39:01;10.15;;;5.80;;
48823;SDS011;34640;53.590;10.054;2024-02-21T07:41:35;9.93;;;5.68;;
48823;SDS011;34640;53.590;10.054;2024-02-21T07:44:07;12.40;;;6.70;;
48823;SDS011;34640;53.590;10.054;2024-02-21T07:46:40;11.00;;;6.25;;
48823;SDS011;34640;53.590;10.054;2024-02-21T07:49:16;11.55;;;5.70;;
48823;SDS011;34640;53.590;10.054;2024-02-21T07:51:49;11.05;;;6.03;;
48823;SDS011;34640;53.590;10.054;2024-02-21T07:54:23;9.20;;;6.28;;
48823;SDS011;34640;53.590;10.054;2024-02-21T07:56:57;11.23;;;6.07;;
48823;SDS011;34640;53.590;10.054;2024-02-21T07:59:30;8.82;;;5.07;;
48823;SDS011;34640;53.590;10.054;2024-02-21T08:02:04;9.35;;;5.35;;
48823;SDS011;34640;53.590;10.054;2024-02-21T08:04:40;6.25;;;4.07;;
48823;SDS011;34640;53.590;10.054;2024-02-21T08:07:14;6.35;;;4.35;;
48823;SDS011;34640;53.590;10.054;2024-02-21T08:09:47;12.23;;;4.85;;
48823;SDS011;34640;53.590;10.054;2024-02-21T08:12:20;7.53;;;3.47;;
48823;SDS011;34640;53.590;10.054;2024-02-21T08:14:54;10.02;;;3.75;;
48823;SDS011;34640;53.590;10.054;2024-02-21T08:17:27;12.02;;;4.13;;
48823;SDS011;34640;53.590;10.054;2024-02-21T08:20:02;14.02;;;4.03;;
48823;SDS011;34640;53.590;10.054;2024-02-21T08:22:37;10.90;;;4.38;;
48823;SDS011;34640;53.590;10.054;2024-02-21T08:25:10;16.77;;;3.67;;
48823;SDS011;34640;53.590;10.054;2024-02-21T08:27:45;11.48;;;3.28;;
48823;SDS011;34640;53.590;10.054;2024-02-21T08:30:18;15.57;;;4.25;;
48823;SDS011;34640;53.590;10.054;2024-02-21T08:32:51;15.20;;;3.58;;
48823;SDS011;34640;53.590;10.054;2024-02-21T08:35:27;14.48;;;3.97;;
48823;SDS011;34640;53.590;10.054;2024-02-21T08:38:00;22.83;;;4.57;;
48823;SDS011;34640;53.590;10.054;2024-02-21T08:40:34;24.27;;;3.60;;
48823;SDS011;34640;53.590;10.054;2024-02-21T08:43:08;19.65;;;4.13;;
48823;SDS011;34640;53.590;10.054;2024-02-21T08:45:41;14.25;;;2.92;;
48823;SDS011;34640;53.590;10.054;2024-02-21T08:48:14;24.40;;;2.88;;
48823;SDS011;34640;53.590;10.054;2024-02-21T08:50:49;21.80;;;3.40;;
48823;SDS011;34640;53.590;10.054;2024-02-21T08:53:22;14.27;;;3.10;;
48823;SDS011;34640;53.590;10.054;2024-02-21T08:55:55;14.18;;;3.40;;
48823;SDS011;34640;53.590;10.054;2024-02-21T08:58:29;20.33;;;3.72;;
48823;SDS011;34640;53.590;10.054;2024-02-21T09:01:02;25.70;;;4.80;;
48823;SDS011;34640;53.590;10.054;2024-02-21T09:03:37;21.40;;;3.60;;
48823;SDS011;34640;53.590;10.054;2024-02-21T09:06:15;18.40;;;3.22;;
48823;SDS011;34640;53.590;10.054;2024-02-21T09:08:49;17.90;;;3.50;;
48823;SDS011;34640;53.590;10.054;2024-02-21T09:11:22;24.25;;;3.47;;
48823;SDS011;34640;53.590;10.054;2024-02-21T09:13:55;22.27;;;3.47;;
48823;SDS011;34640;53.590;10.054;2024-02-21T09:16:29;20.58;;;3.70;;
48823;SDS011;34640;53.590;10.054;2024-02-21T09:19:03;16.95;;;2.85;;
48823;SDS011;34640;53.590;10.054;2024-02-21T09:21:38;22.52;;;3.47;;
48823;SDS011;34640;53.590;10.054;2024-02-21T09:24:11;16.63;;;3.55;;
48823;SDS011;34640;53.590;10.054;2024-02-21T09:26:44;19.67;;;3.10;;
48823;SDS011;34640;53.590;10.054;2024-02-21T09:29:18;21.75;;;3.80;;
48823;SDS011;34640;53.590;10.054;2024-02-21T09:31:56;17.52;;;4.18;;
48823;SDS011;34640;53.590;10.054;2024-02-21T09:34:29;18.85;;;2.95;;
48823;SDS011;34640;53.590;10.054;2024-02-21T09:37:04;21.70;;;4.05;;
48823;SDS011;34640;53.590;10.054;2024-02-21T09:39:38;16.50;;;2.75;;
48823;SDS011;34640;53.590;10.054;2024-02-21T09:42:13;14.82;;;2.80;;
48823;SDS011;34640;53.590;10.054;2024-02-21T09:44:52;26.27;;;3.22;;
48823;SDS011;34640;53.590;10.054;2024-02-21T09:47:28;22.42;;;4.13;;
48823;SDS011;34640;53.590;10.054;2024-02-21T09:50:08;15.57;;;3.00;;
48823;SDS011;34640;53.590;10.054;2024-02-21T09:52:43;17.92;;;3.72;;
48823;SDS011;34640;53.590;10.054;2024-02-21T09:55:18;12.88;;;3.35;;
48823;SDS011;34640;53.590;10.054;2024-02-21T09:57:54;12.93;;;3.17;;
48823;SDS011;34640;53.590;10.054;2024-02-21T10:00:28;15.60;;;3.17;;
48823;SDS011;34640;53.590;10.054;2024-02-21T10:03:02;10.32;;;3.20;;
48823;SDS011;34640;53.590;10.054;2024-02-21T10:08:21;16.45;;;3.65;;
48823;SDS011;34640;53.590;10.054;2024-02-21T10:10:54;14.40;;;3.40;;
48823;SDS011;34640;53.590;10.054;2024-02-21T10:13:31;16.33;;;3.83;;
48823;SDS011;34640;53.590;10.054;2024-02-21T10:16:05;13.43;;;5.20;;
48823;SDS011;34640;53.590;10.054;2024-02-21T10:18:39;8.77;;;3.78;;
48823;SDS011;34640;53.590;10.054;2024-02-21T10:21:12;9.88;;;4.38;;
48823;SDS011;34640;53.590;10.054;2024-02-21T10:23:47;14.32;;;5.50;;
48823;SDS011;34640;53.590;10.054;2024-02-21T10:26:21;13.38;;;6.50;;
48823;SDS011;34640;53.590;10.054;2024-02-21T10:28:54;12.02;;;6.43;;
48823;SDS011;34640;53.590;10.054;2024-02-21T10:31:29;15.07;;;8.18;;
48823;SDS011;34640;53.590;10.054;2024-02-21T10:34:02;18.67;;;9.07;;
48823;SDS011;34640;53.590;10.054;2024-02-21T10:36:37;23.00;;;12.07;;
48823;SDS011;34640;53.590;10.054;2024-02-21T10:39:11;26.35;;;13.27;;
48823;SDS011;34640;53.590;10.054;2024-02-21T10:41:44;31.85;;;15.57;;
48823;SDS011;34640;53.590;10.054;2024-02-21T10:44:18;32.63;;;16.15;;
48823;SDS011;34640;53.590;10.054;2024-02-21T10:46:54;41.50;;;17.50;;
48823;SDS011;34640;53.590;10.054;2024-02-21T10:49:29;38.10;;;17.70;;
48823;SDS011;34640;53.590;10.054;2024-02-21T10:52:05;39.90;;;19.48;;
48823;SDS011;34640;53.590;10.054;2024-02-21T10:54:47;40.53;;;19.40;;
48823;SDS011;34640;53.590;10.054;2024-02-21T10:57:26;43.30;;;18.83;;
48823;SDS011;34640;53.590;10.054;2024-02-21T10:59:59;42.08;;;19.38;;
48823;SDS011;34640;53.590;10.054;2024-02-21T11:02:35;45.05;;;20.40;;
48823;SDS011;34640;53.590;10.054;2024-02-21T11:05:08;45.78;;;20.58;;
48823;SDS011;34640;53.590;10.054;2024-02-21T11:07:42;48.13;;;21.52;;
48823;SDS011;34640;53.590;10.054;2024-02-21T11:10:24;40.67;;;20.27;;
48823;SDS011;34640;53.590;10.054;2024-02-21T11:13:05;45.88;;;19.35;;
48823;SDS011;34640;53.590;10.054;2024-02-21T11:15:39;44.60;;;19.65;;
48823;SDS011;34640;53.590;10.054;2024-02-21T11:18:22;42.42;;;18.80;;
48823;SDS011;34640;53.590;10.054;2024-02-21T11:20:56;47.53;;;18.80;;
48823;SDS011;34640;53.590;10.054;2024-02-21T11:23:29;38.13;;;18.48;;
48823;SDS011;34640;53.590;10.054;2024-02-21T11:26:07;38.50;;;17.63;;
48823;SDS011;34640;53.590;10.054;2024-02-21T11:28:40;37.15;;;17.38;;
48823;SDS011;34640;53.590;10.054;2024-02-21T11:31:15;36.67;;;16.13;;
48823;SDS011;34640;53.590;10.054;2024-02-21T11:33:50;34.80;;;16.83;;
48823;SDS011;34640;53.590;10.054;2024-02-21T11:36:24;33.28;;;16.02;;
48823;SDS011;34640;53.590;10.054;2024-02-21T11:39:03;35.38;;;14.63;;
48823;SDS011;34640;53.590;10.054;2024-02-21T11:41:38;32.05;;;13.93;;
48823;SDS011;34640;53.590;10.054;2024-02-21T11:44:11;31.55;;;15.57;;
48823;SDS011;34640;53.590;10.054;2024-02-21T11:46:44;32.05;;;14.73;;
48823;SDS011;34640;53.590;10.054;2024-02-21T11:49:18;29.95;;;13.00;;
48823;SDS011;34640;53.590;10.054;2024-02-21T11:51:57;30.15;;;13.27;;
48823;SDS011;34640;53.590;10.054;2024-02-21T11:54:33;31.10;;;12.60;;
48823;SDS011;34640;53.590;10.054;2024-02-21T11:57:08;29.27;;;12.77;;
48823;SDS011;34640;53.590;10.054;2024-02-21T11:59:42;32.30;;;13.25;;
48823;SDS011;34640;53.590;10.054;2024-02-21T12:02:17;25.23;;;13.23;;
48823;SDS011;34640;53.590;10.054;2024-02-21T12:04:50;28.05;;;14.15;;
48823;SDS011;34640;53.590;10.054;2024-02-21T12:07:26;30.15;;;12.80;;
48823;SDS011;34640;53.590;10.054;2024-02-21T12:10:01;29.80;;;12.35;;
48823;SDS011;34640;53.590;10.054;2024-02-21T12:12:36;27.77;;;11.93;;
48823;SDS011;34640;53.590;10.054;2024-02-21T12:15:09;30.55;;;11.90;;
48823;SDS011;34640;53.590;10.054;2024-02-21T12:17:43;27.10;;;13.15;;
48823;SDS011;34640;53.590;10.054;2024-02-21T12:20:16;26.60;;;12.57;;
48823;SDS011;34640;53.590;10.054;2024-02-21T12:22:52;34.97;;;12.75;;
48823;SDS011;34640;53.590;10.054;2024-02-21T12:25:26;25.20;;;11.32;;
48823;SDS011;34640;53.590;10.054;2024-02-21T12:28:02;26.90;;;12.32;;
48823;SDS011;34640;53.590;10.054;2024-02-21T12:30:36;28.42;;;11.25;;
48823;SDS011;34640;53.590;10.054;2024-02-21T12:33:11;30.58;;;12.80;;
48823;SDS011;34640;53.590;10.054;2024-02-21T12:35:45;29.63;;;12.10;;
48823;SDS011;34640;53.590;10.054;2024-02-21T12:38:21;24.92;;;12.10;;
48823;SDS011;34640;53.590;10.054;2024-02-21T12:40:54;27.83;;;11.63;;
48823;SDS011;34640;53.590;10.054;2024-02-21T12:43:30;27.20;;;11.40;;
48823;SDS011;34640;53.590;10.054;2024-02-21T12:46:03;25.05;;;12.60;;
48823;SDS011;34640;53.590;10.054;2024-02-21T12:48:39;22.67;;;12.20;;
48823;SDS011;34640;53.590;10.054;2024-02-21T12:51:14;32.03;;;13.05;;
48823;SDS011;34640;53.590;10.054;2024-02-21T12:53:52;33.50;;;14.32;;
48823;SDS011;34640;53.590;10.054;2024-02-21T12:56:26;34.08;;;14.18;;
48823;SDS011;34640;53.590;10.054;2024-02-21T12:59:01;38.05;;;14.73;;
48823;SDS011;34640;53.590;10.054;2024-02-21T13:01:37;33.47;;;14.70;;
48823;SDS011;34640;53.590;10.054;2024-02-21T13:04:10;34.65;;;15.20;;
48823;SDS011;34640;53.590;10.054;2024-02-21T13:06:43;33.97;;;14.13;;
48823;SDS011;34640;53.590;10.054;2024-02-21T13:09:17;32.65;;;14.55;;
48823;SDS011;34640;53.590;10.054;2024-02-21T13:11:51;35.10;;;14.27;;
48823;SDS011;34640;53.590;10.054;2024-02-21T13:14:29;31.20;;;15.00;;
48823;SDS011;34640;53.590;10.054;2024-02-21T13:17:04;31.65;;;13.95;;
48823;SDS011;34640;53.590;10.054;2024-02-21T13:19:39;36.72;;;14.75;;
48823;SDS011;34640;53.590;10.054;2024-02-21T13:22:20;37.53;;;14.52;;
48823;SDS011;34640;53.590;10.054;2024-02-21T13:24:58;32.17;;;14.18;;
48823;SDS011;34640;53.590;10.054;2024-02-21T13:27:32;36.55;;;15.85;;
48823;SDS011;34640;53.590;10.054;2024-02-21T13:30:10;29.15;;;13.63;;
48823;SDS011;34640;53.590;10.054;2024-02-21T13:32:44;28.05;;;13.93;;
48823;SDS011;34640;53.590;10.054;2024-02-21T13:35:20;34.33;;;14.15;;
48823;SDS011;34640;53.590;10.054;2024-02-21T13:37:55;31.60;;;13.70;;
48823;SDS011;34640;53.590;10.054;2024-02-21T13:40:30;22.80;;;11.88;;
48823;SDS011;34640;53.590;10.054;2024-02-21T13:43:04;27.10;;;12.13;;
48823;SDS011;34640;53.590;10.054;2024-02-21T13:45:45;26.52;;;11.88;;
48823;SDS011;34640;53.590;10.054;2024-02-21T13:48:29;25.80;;;12.32;;
48823;SDS011;34640;53.590;10.054;2024-02-21T13:51:02;30.17;;;11.40;;
48823;SDS011;34640;53.590;10.054;2024-02-21T13:53:36;24.90;;;10.25;;
48823;SDS011;34640;53.590;10.054;2024-02-21T13:56:10;20.73;;;11.13;;
48823;SDS011;34640;53.590;10.054;2024-02-21T13:58:44;29.10;;;11.73;;
48823;SDS011;34640;53.590;10.054;2024-02-21T14:01:21;27.70;;;12.23;;
48823;SDS011;34640;53.590;10.054;2024-02-21T14:03:58;24.58;;;10.90;;
48823;SDS011;34640;53.590;10.054;2024-02-21T14:06:32;28.08;;;12.07;;
48823;SDS011;34640;53.590;10.054;2024-02-21T14:09:15;20.40;;;10.25;;
48823;SDS011;34640;53.590;10.054;2024-02-21T14:11:48;23.38;;;11.45;;
48823;SDS011;34640;53.590;10.054;2024-02-21T14:14:22;25.65;;;10.80;;
48823;SDS011;34640;53.590;10.054;2024-02-21T14:17:06;24.08;;;11.55;;
48823;SDS011;34640;53.590;10.054;2024-02-21T14:19:41;20.17;;;10.90;;
48823;SDS011;34640;53.590;10.054;2024-02-21T14:22:16;23.33;;;10.80;;
48823;SDS011;34640;53.590;10.054;2024-02-21T14:24:49;26.35;;;10.88;;
48823;SDS011;34640;53.590;10.054;2024-02-21T14:27:24;28.13;;;11.02;;
48823;SDS011;34640;53.590;10.054;2024-02-21T14:29:58;24.92;;;10.43;;
48823;SDS011;34640;53.590;10.054;2024-02-21T14:32:36;19.73;;;9.98;;
48823;SDS011;34640;53.590;10.054;2024-02-21T14:35:12;22.10;;;9.40;;
48823;SDS011;34640;53.590;10.054;2024-02-21T14:37:47;21.73;;;9.50;;
48823;SDS011;34640;53.590;10.054;2024-02-21T14:40:29;20.15;;;9.63;;
48823;SDS011;34640;53.590;10.054;2024-02-21T14:43:03;26.00;;;9.63;;
48823;SDS011;34640;53.590;10.054;2024-02-21T14:45:37;19.00;;;8.63;;
48823;SDS011;34640;53.590;10.054;2024-02-21T14:48:13;23.13;;;9.18;;
48823;SDS011;34640;53.590;10.054;2024-02-21T14:50:47;16.73;;;8.95;;
48823;SDS011;34640;53.590;10.054;2024-02-21T14:53:21;22.60;;;9.05;;
48823;SDS011;34640;53.590;10.054;2024-02-21T14:56:00;23.77;;;8.38;;
48823;SDS011;34640;53.590;10.054;2024-02-21T14:58:34;25.30;;;9.48;;